Time;durP1;ratioP1;P1;durP2;ratioP2;P2;SDS_P1;SDS_P2;PMS_P1;PMS_P2;Temp;Humidity;BMP_temperature;BMP_pressure;BME280_temperature;BME280_humidity;BME280_pressure;Samples;Min_cycle;Max_cycle;Signal;HPM_P1;HPM_P2
2023/05/05 00:01:08;;;;;;;6.30;1.57;;;;;;;11.44;93.91;96391.75;5038973;28;20205;-71
2023/05/05 00:03:35;;;;;;;5.10;1.67;;;;;;;11.44;93.10;96386.47;5039668;28;20209;-70
2023/05/05 00:06:04;;;;;;;3.50;1.50;;;;;;;11.51;92.82;96376.91;5038682;28;20310;-70
2023/05/05 00:08:30;;;;;;;2.87;2.00;;;;;;;11.31;93.42;96381.00;5037063;28;20220;-70
2023/05/05 00:10:57;;;;;;;2.63;1.70;;;;;;;10.86;98.36;96380.22;5038373;28;20225;-70
2023/05/05 00:13:23;;;;;;;2.17;1.30;;;;;;;10.96;97.88;96373.72;5038484;28;20542;-70
2023/05/05 00:15:52;;;;;;;4.77;2.77;;;;;;;11.20;96.70;96372.69;5038566;28;20221;-69
2023/05/05 00:18:19;;;;;;;1.40;1.30;;;;;;;11.38;95.87;96375.81;5038124;28;20205;-70
2023/05/05 00:20:46;;;;;;;2.93;1.93;;;;;;;11.40;94.75;96368.56;5038072;28;20216;-70
2023/05/05 00:23:15;;;;;;;2.80;1.23;;;;;;;11.25;95.44;96373.81;5037830;28;20194;-71
2023/05/05 00:25:42;;;;;;;2.00;1.40;;;;;;;11.34;94.80;96375.38;5038097;28;20221;-70
2023/05/05 00:28:08;;;;;;;2.10;1.40;;;;;;;11.24;96.13;96369.53;5036764;28;20697;-71
2023/05/05 00:30:36;;;;;;;2.30;1.70;;;;;;;11.16;94.69;96366.97;5038035;28;20201;-70
2023/05/05 00:33:02;;;;;;;2.80;1.67;;;;;;;11.21;94.16;96364.59;5038028;28;20304;-70
2023/05/05 00:35:29;;;;;;;4.17;2.23;;;;;;;11.15;94.33;96369.75;5037942;28;20224;-70
2023/05/05 00:37:55;;;;;;;2.20;1.63;;;;;;;11.02;94.99;96361.63;5036361;28;20197;-70
2023/05/05 00:40:24;;;;;;;3.37;2.13;;;;;;;11.10;95.71;96367.66;5037823;28;20232;-70
2023/05/05 00:42:50;;;;;;;2.43;1.40;;;;;;;11.02;97.32;96369.53;5038127;28;20669;-69
2023/05/05 00:45:19;;;;;;;2.33;1.50;;;;;;;10.99;97.59;96370.72;5037448;28;20240;-69
2023/05/05 00:47:48;;;;;;;3.07;1.83;;;;;;;11.14;96.96;96368.94;5036914;28;20251;-69
2023/05/05 00:50:22;;;;;;;2.23;1.23;;;;;;;11.12;95.88;96363.03;5037046;28;20205;-71
2023/05/05 00:52:49;;;;;;;5.60;2.17;;;;;;;11.03;95.61;96361.44;5038292;28;20225;-71
2023/05/05 00:55:16;;;;;;;4.33;1.43;;;;;;;11.03;95.68;96360.63;5037544;28;20217;-71
2023/05/05 00:57:45;;;;;;;4.87;2.27;;;;;;;10.93;96.19;96365.31;5037042;28;20202;-70
2023/05/05 01:00:12;;;;;;;2.23;1.90;;;;;;;10.80;99.05;96365.09;5036321;28;20201;-70
2023/05/05 01:02:39;;;;;;;2.10;1.57;;;;;;;10.67;98.88;96353.50;5037353;28;20585;-70
2023/05/05 01:05:06;;;;;;;4.57;1.67;;;;;;;10.83;98.91;96356.00;5037862;28;20213;-70
2023/05/05 01:07:44;;;;;;;1.53;1.17;;;;;;;10.90;97.70;96360.41;5036759;28;20600;-70
2023/05/05 01:10:19;;;;;;;3.17;2.10;;;;;;;10.88;97.97;96356.31;5037377;28;20211;-70
2023/05/05 01:12:53;;;;;;;3.43;1.30;;;;;;;10.72;97.66;96365.16;5037900;28;20200;-70
2023/05/05 01:15:31;;;;;;;3.10;1.63;;;;;;;10.79;98.68;96360.00;5036762;28;20224;-70
2023/05/05 01:18:03;;;;;;;1.43;1.13;;;;;;;10.85;99.51;96368.03;5037286;28;20201;-70
2023/05/05 01:20:35;;;;;;;2.83;1.60;;;;;;;10.88;98.61;96369.47;5036733;28;20245;-70
2023/05/05 01:23:07;;;;;;;1.17;1.07;;;;;;;10.78;97.08;96366.25;5037607;28;20887;-70
2023/05/05 01:26:01;;;;;;;2.90;1.70;;;;;;;10.71;97.15;96373.22;5036454;28;20286;-70
2023/05/05 01:28:39;;;;;;;2.57;1.73;;;;;;;10.76;98.49;96363.78;5036737;28;20292;-69
2023/05/05 01:31:24;;;;;;;1.67;1.33;;;;;;;10.79;98.22;96360.00;5035847;28;21001;-70
2023/05/05 01:33:58;;;;;;;3.10;2.13;;;;;;;10.79;98.66;96362.63;5037391;28;20212;-70
2023/05/05 01:36:32;;;;;;;2.47;1.83;;;;;;;10.77;98.92;96370.72;5036467;28;20234;-71
2023/05/05 01:39:01;;;;;;;2.00;1.17;;;;;;;10.82;100.00;96364.91;5036593;28;20223;-69
2023/05/05 01:41:31;;;;;;;4.10;2.00;;;;;;;10.86;100.00;96368.81;5036609;28;20657;-71
2023/05/05 01:44:01;;;;;;;6.50;1.90;;;;;;;10.79;98.84;96373.19;5037563;28;20201;-69
2023/05/05 01:46:28;;;;;;;2.97;1.77;;;;;;;10.77;98.27;96372.50;5035934;28;20229;-71
2023/05/05 01:48:56;;;;;;;2.03;1.47;;;;;;;10.84;100.00;96379.56;5036737;28;20568;-69
2023/05/05 01:51:24;;;;;;;2.57;1.33;;;;;;;10.83;99.28;96366.56;5036258;28;20239;-70
2023/05/05 01:53:54;;;;;;;1.63;1.13;;;;;;;10.77;98.46;96370.72;5036243;28;20201;-70
2023/05/05 01:56:23;;;;;;;2.23;1.30;;;;;;;10.71;100.00;96365.31;5036399;28;20246;-71
2023/05/05 01:58:51;;;;;;;2.63;1.97;;;;;;;10.72;100.00;96369.59;5035653;28;20249;-72
2023/05/05 02:01:20;;;;;;;3.17;1.60;;;;;;;10.85;100.00;96368.03;5036803;28;20205;-72
2023/05/05 02:03:49;;;;;;;2.60;1.93;;;;;;;10.93;100.00;96374.06;5036660;28;20201;-72
2023/05/05 02:06:19;;;;;;;4.83;1.77;;;;;;;10.88;100.00;96375.56;5036262;28;20228;-71
2023/05/05 02:08:47;;;;;;;4.03;2.23;;;;;;;10.91;100.00;96363.84;5035431;28;20221;-70
2023/05/05 02:11:14;;;;;;;1.77;1.30;;;;;;;10.93;100.00;96372.41;5035870;28;20201;-71
2023/05/05 02:13:42;;;;;;;3.70;2.30;;;;;;;10.83;100.00;96379.72;5036367;28;20211;-70
2023/05/05 02:16:09;;;;;;;2.37;1.50;;;;;;;10.93;100.00;96373.22;5036028;28;20786;-70
2023/05/05 02:18:37;;;;;;;8.23;2.23;;;;;;;10.90;100.00;96370.16;5035275;28;20205;-71
2023/05/05 02:21:04;;;;;;;3.80;1.77;;;;;;;10.91;99.76;96369.13;5035523;28;20202;-72
2023/05/05 02:23:32;;;;;;;3.47;1.90;;;;;;;10.79;100.00;96373.97;5035547;28;20216;-71
2023/05/05 02:26:04;;;;;;;4.70;2.00;;;;;;;10.88;100.00;96378.19;5036313;28;20221;-71
2023/05/05 02:28:39;;;;;;;4.93;2.10;;;;;;;10.85;100.00;96377.75;5032975;28;20236;-71
2023/05/05 02:31:08;;;;;;;1.87;1.43;;;;;;;10.79;98.93;96375.81;5035048;28;20205;-71
2023/05/05 02:33:36;;;;;;;2.50;1.57;;;;;;;10.80;100.00;96374.81;5036687;28;20208;-70
2023/05/05 02:36:10;;;;;;;2.27;1.47;;;;;;;10.72;99.21;96372.25;5035533;28;20221;-71
2023/05/05 02:38:41;;;;;;;1.47;1.17;;;;;;;10.53;98.08;96375.31;5035355;28;20201;-71
2023/05/05 02:41:11;;;;;;;2.57;1.53;;;;;;;10.42;100.00;96381.81;5036036;28;20205;-71
2023/05/05 02:43:40;;;;;;;2.13;1.43;;;;;;;10.51;100.00;96386.03;5036359;28;20216;-71
2023/05/05 02:46:08;;;;;;;4.60;2.20;;;;;;;10.37;100.00;96376.22;5035535;28;20231;-71
2023/05/05 02:48:34;;;;;;;5.07;2.80;;;;;;;10.43;100.00;96370.25;5035664;28;20228;-71
2023/05/05 02:51:01;;;;;;;1.67;1.33;;;;;;;10.24;100.00;96376.94;5035730;28;20259;-70
2023/05/05 02:53:28;;;;;;;2.83;1.40;;;;;;;10.26;100.00;96370.53;5035894;28;20204;-70
2023/05/05 02:56:04;;;;;;;2.90;2.07;;;;;;;10.39;100.00;96376.84;5035847;28;20717;-71
2023/05/05 02:58:38;;;;;;;4.77;1.30;;;;;;;10.10;100.00;96373.22;5034558;28;20216;-70
2023/05/05 03:01:11;;;;;;;3.77;1.97;;;;;;;10.26;100.00;96374.94;5034765;28;20196;-70
2023/05/05 03:03:44;;;;;;;3.17;1.70;;;;;;;10.31;100.00;96370.00;5035733;28;20197;-71
2023/05/05 03:06:14;;;;;;;5.37;2.80;;;;;;;10.42;100.00;96365.16;5035755;28;21089;-70
2023/05/05 03:08:44;;;;;;;3.90;1.43;;;;;;;10.55;100.00;96360.13;5034672;28;20589;-70
2023/05/05 03:11:18;;;;;;;2.53;1.63;;;;;;;10.64;100.00;96359.09;5034817;28;20296;-69
2023/05/05 03:13:50;;;;;;;1.83;1.30;;;;;;;10.52;100.00;96358.66;5035225;28;20198;-71
2023/05/05 03:16:18;;;;;;;3.37;1.80;;;;;;;10.52;100.00;96357.88;5035445;28;20228;-70
2023/05/05 03:18:47;;;;;;;4.20;2.27;;;;;;;10.44;100.00;96358.72;5034174;28;20213;-70
2023/05/05 03:21:14;;;;;;;3.83;1.70;;;;;;;10.30;100.00;96356.00;5035232;28;20197;-70
2023/05/05 03:23:41;;;;;;;3.53;1.90;;;;;;;10.34;100.00;96373.09;5035359;28;20209;-70
2023/05/05 03:26:07;;;;;;;4.70;2.47;;;;;;;10.36;100.00;96360.56;5035003;28;20593;-71
2023/05/05 03:28:35;;;;;;;4.10;2.17;;;;;;;10.26;100.00;96377.59;5034905;28;20225;-70
2023/05/05 03:31:03;;;;;;;3.37;2.27;;;;;;;9.84;100.00;96380.50;5035079;28;20228;-70
2023/05/05 03:33:29;;;;;;;8.23;1.77;;;;;;;10.03;100.00;96380.16;5035201;28;20208;-69
2023/05/05 03:35:56;;;;;;;1.60;1.30;;;;;;;10.07;100.00;96376.19;5035621;28;20231;-71
2023/05/05 03:38:22;;;;;;;4.10;2.60;;;;;;;10.07;100.00;96370.94;5034236;28;20198;-70
2023/05/05 03:40:49;;;;;;;4.57;1.60;;;;;;;10.00;100.00;96377.03;5034999;28;20780;-70
2023/05/05 03:43:15;;;;;;;2.97;1.60;;;;;;;10.12;100.00;96373.88;5035660;28;20201;-71
2023/05/05 03:45:43;;;;;;;6.20;2.00;;;;;;;10.31;100.00;96370.81;5034976;28;20237;-70
2023/05/05 03:48:10;;;;;;;2.97;2.67;;;;;;;10.36;100.00;96376.38;5033850;28;20240;-70
2023/05/05 03:50:36;;;;;;;4.77;2.10;;;;;;;10.43;100.00;96372.06;5034162;28;20205;-70
2023/05/05 03:53:03;;;;;;;6.63;2.27;;;;;;;10.48;100.00;96377.66;5034641;28;20347;-70
2023/05/05 03:55:29;;;;;;;4.10;2.30;;;;;;;10.58;100.00;96370.34;5035725;28;20221;-71
2023/05/05 03:57:56;;;;;;;3.13;2.13;;;;;;;10.51;100.00;96369.38;5034173;28;20208;-70
2023/05/05 04:00:22;;;;;;;2.83;1.90;;;;;;;10.38;100.00;96369.13;5035036;28;20201;-70
2023/05/05 04:02:50;;;;;;;4.37;3.23;;;;;;;10.47;100.00;96374.16;5035157;28;20670;-70
2023/05/05 04:05:18;;;;;;;5.33;2.80;;;;;;;10.54;100.00;96366.44;5035111;28;20225;-71
2023/05/05 04:07:45;;;;;;;6.90;2.63;;;;;;;10.54;100.00;96366.44;5034201;28;20217;-71
2023/05/05 04:10:11;;;;;;;5.57;2.03;;;;;;;10.52;100.00;96365.78;5034808;28;20197;-71
2023/05/05 04:12:38;;;;;;;5.20;2.27;;;;;;;10.63;100.00;96363.56;5036561;28;20227;-70
2023/05/05 04:15:06;;;;;;;4.30;2.40;;;;;;;10.71;100.00;96366.13;5037819;28;20223;-71
2023/05/05 04:17:32;;;;;;;3.10;1.80;;;;;;;10.73;100.00;96364.16;5037535;28;20212;-69
2023/05/05 04:20:00;;;;;;;5.60;2.63;;;;;;;10.60;100.00;96376.25;5038146;28;20316;-71
2023/05/05 04:22:26;;;;;;;4.37;2.67;;;;;;;10.71;100.00;96375.88;5038141;28;20198;-70
2023/05/05 04:24:53;;;;;;;4.40;2.13;;;;;;;10.53;100.00;96393.75;5037866;28;20666;-70
2023/05/05 04:27:20;;;;;;;3.77;1.93;;;;;;;10.41;100.00;96397.75;5037509;28;20289;-70
2023/05/05 04:29:46;;;;;;;4.47;2.50;;;;;;;10.65;100.00;96387.91;5037627;28;20272;-70
2023/05/05 04:32:13;;;;;;;2.80;2.13;;;;;;;10.63;100.00;96389.09;5037559;28;20197;-70
2023/05/05 04:34:39;;;;;;;4.17;2.37;;;;;;;10.77;100.00;96390.97;5037597;28;20209;-70
2023/05/05 04:37:07;;;;;;;2.33;2.13;;;;;;;10.78;100.00;96395.25;5037673;28;20228;-70
2023/05/05 04:39:33;;;;;;;3.10;2.27;;;;;;;10.84;100.00;96397.19;5036850;28;20598;-70
2023/05/05 04:42:01;;;;;;;4.33;2.60;;;;;;;10.97;100.00;96409.63;5037522;28;20202;-70
2023/05/05 04:44:27;;;;;;;6.07;3.37;;;;;;;11.09;100.00;96397.66;5037616;28;20292;-70
2023/05/05 04:46:54;;;;;;;4.90;2.40;;;;;;;11.17;100.00;96400.22;5036084;28;20236;-70
2023/05/05 04:49:20;;;;;;;4.07;2.77;;;;;;;11.31;100.00;96399.47;5036847;28;20701;-69
2023/05/05 04:51:47;;;;;;;5.47;2.60;;;;;;;11.40;100.00;96402.88;5037304;28;20204;-70
2023/05/05 04:54:14;;;;;;;4.63;2.70;;;;;;;11.66;100.00;96402.31;5037623;28;21311;-69
2023/05/05 04:56:41;;;;;;;6.83;2.80;;;;;;;11.73;100.00;96402.41;5037278;28;20225;-70
2023/05/05 04:59:07;;;;;;;4.73;3.13;;;;;;;11.81;100.00;96405.81;5036882;28;20208;-70
2023/05/05 05:01:34;;;;;;;8.10;3.23;;;;;;;11.97;100.00;96397.72;5037570;28;20649;-70
2023/05/05 05:04:01;;;;;;;6.83;3.27;;;;;;;12.01;100.00;96401.63;5036702;28;20240;-70
2023/05/05 05:06:28;;;;;;;7.40;3.30;;;;;;;12.22;100.00;96401.75;5036879;28;20213;-69
2023/05/05 05:08:54;;;;;;;9.20;4.03;;;;;;;12.32;100.00;96411.03;5036606;28;20228;-70
2023/05/05 05:11:22;;;;;;;5.57;2.97;;;;;;;12.56;100.00;96408.06;5036996;28;20205;-70
2023/05/05 05:13:49;;;;;;;7.00;3.33;;;;;;;12.57;100.00;96404.41;5036843;28;20296;-71
2023/05/05 05:16:15;;;;;;;6.80;3.23;;;;;;;12.74;100.00;96402.38;5037270;28;20757;-70
2023/05/05 05:18:42;;;;;;;5.67;3.03;;;;;;;12.80;100.00;96399.81;5035507;28;20205;-69
2023/05/05 05:21:09;;;;;;;5.73;3.73;;;;;;;12.89;100.00;96407.50;5036578;28;20208;-71
2023/05/05 05:23:35;;;;;;;4.68;2.97;;;;;;;12.98;100.00;96406.38;5036878;28;20846;-69
2023/05/05 05:26:04;;;;;;;6.60;3.70;;;;;;;13.20;100.00;96401.88;5036893;28;20236;-70
2023/05/05 05:28:31;;;;;;;7.05;3.42;;;;;;;13.31;100.00;96396.09;5035173;28;20225;-71
2023/05/05 05:30:58;;;;;;;6.78;3.60;;;;;;;13.33;100.00;96404.66;5037034;28;20592;-68
2023/05/05 05:33:25;;;;;;;8.68;3.70;;;;;;;13.39;100.00;96402.91;5037242;28;20201;-70
2023/05/05 05:35:51;;;;;;;5.33;3.10;;;;;;;13.56;100.00;96404.25;5036743;28;20239;-69
2023/05/05 05:38:18;;;;;;;12.40;3.53;;;;;;;13.69;100.00;96406.22;5036244;28;20212;-69
2023/05/05 05:40:44;;;;;;;10.88;4.43;;;;;;;13.83;99.55;96406.09;5036297;28;20212;-70
2023/05/05 05:43:11;;;;;;;8.35;4.00;;;;;;;13.97;99.28;96401.75;5035880;28;20198;-68
2023/05/05 05:45:38;;;;;;;6.25;3.25;;;;;;;14.08;97.87;96404.69;5036703;28;20236;-68
2023/05/05 05:48:05;;;;;;;6.72;3.45;;;;;;;14.05;97.98;96403.22;5035921;28;20225;-69
2023/05/05 05:50:32;;;;;;;6.30;3.53;;;;;;;14.10;98.56;96403.50;5036432;28;20205;-71
2023/05/05 05:52:59;;;;;;;6.35;3.25;;;;;;;14.20;97.44;96406.59;5035534;28;20205;-69
2023/05/05 05:55:25;;;;;;;4.05;2.53;;;;;;;14.28;97.65;96413.56;5036837;28;20719;-71
2023/05/05 05:57:52;;;;;;;5.35;3.13;;;;;;;14.38;97.27;96411.41;5035869;28;20212;-70
2023/05/05 06:00:19;;;;;;;4.68;2.90;;;;;;;14.49;97.07;96413.50;5035979;28;20208;-69
2023/05/05 06:02:47;;;;;;;5.78;2.75;;;;;;;14.63;97.86;96408.06;5036743;28;20355;-70
2023/05/05 06:05:13;;;;;;;5.15;3.10;;;;;;;14.74;97.53;96402.19;5036816;28;20303;-70
2023/05/05 06:07:40;;;;;;;5.63;2.75;;;;;;;15.01;94.53;96410.03;5034967;28;20205;-69
2023/05/05 06:10:07;;;;;;;7.32;3.63;;;;;;;15.18;93.18;96400.69;5035448;28;20709;-71
2023/05/05 06:12:33;;;;;;;7.93;2.97;;;;;;;15.32;92.56;96403.22;5035379;28;21212;-68
2023/05/05 06:15:00;;;;;;;5.53;3.53;;;;;;;15.45;91.98;96405.03;5036118;28;20198;-71
2023/05/05 06:17:26;;;;;;;5.03;2.70;;;;;;;15.40;92.10;96402.16;5035475;28;20201;-70
2023/05/05 06:19:54;;;;;;;4.75;2.88;;;;;;;15.39;93.89;96397.91;5035449;28;20193;-69
2023/05/05 06:22:21;;;;;;;13.57;3.92;;;;;;;15.30;93.22;96396.47;5035497;28;20197;-69
2023/05/05 06:24:47;;;;;;;4.53;3.15;;;;;;;15.34;93.22;96393.19;5035515;28;20204;-69
2023/05/05 06:27:14;;;;;;;5.55;3.25;;;;;;;15.43;93.05;96404.44;5035278;28;20213;-69
2023/05/05 06:29:40;;;;;;;9.70;3.55;;;;;;;15.20;94.47;96403.97;5034827;28;20600;-70
2023/05/05 06:32:07;;;;;;;7.72;3.63;;;;;;;15.07;96.36;96401.28;5036002;28;20208;-70
2023/05/05 06:34:34;;;;;;;6.10;3.45;;;;;;;15.23;94.82;96408.09;5035241;28;20254;-69
2023/05/05 06:37:02;;;;;;;9.15;3.90;;;;;;;15.28;96.23;96412.56;5035478;28;20780;-68
2023/05/05 06:39:28;;;;;;;12.35;5.00;;;;;;;15.30;96.25;96409.75;5034557;28;20208;-70
2023/05/05 06:41:55;;;;;;;9.10;3.72;;;;;;;15.36;96.82;96403.59;5035149;28;20201;-71
2023/05/05 06:44:21;;;;;;;8.13;3.63;;;;;;;15.33;97.35;96410.13;5036102;28;20201;-70
2023/05/05 06:46:48;;;;;;;9.95;4.22;;;;;;;15.53;96.35;96410.16;5035500;28;20220;-70
2023/05/05 06:49:14;;;;;;;10.98;4.68;;;;;;;15.75;95.73;96404.44;5034946;28;20222;-71
2023/05/05 06:51:41;;;;;;;6.35;3.55;;;;;;;15.91;94.83;96410.19;5034784;28;20677;-71
2023/05/05 06:54:09;;;;;;;5.13;3.00;;;;;;;16.17;94.27;96406.69;5035035;28;20232;-71
2023/05/05 06:56:35;;;;;;;9.65;3.53;;;;;;;16.32;93.41;96408.13;5034653;28;20236;-70
2023/05/05 06:59:01;;;;;;;7.25;3.72;;;;;;;16.18;95.62;96414.44;5034270;28;20193;-68
2023/05/05 07:01:31;;;;;;;6.25;3.42;;;;;;;16.53;94.85;96414.00;5035483;28;20201;-70
2023/05/05 07:03:57;;;;;;;7.72;4.15;;;;;;;16.62;95.03;96417.22;5035225;28;20219;-70
2023/05/05 07:06:24;;;;;;;7.00;3.35;;;;;;;16.73;94.64;96416.59;5034630;28;20259;-70
2023/05/05 07:08:50;;;;;;;7.18;3.63;;;;;;;17.06;94.27;96417.28;5035661;28;20221;-70
2023/05/05 07:11:18;;;;;;;5.70;3.15;;;;;;;17.38;94.39;96417.13;5034311;28;20194;-71
2023/05/05 07:13:45;;;;;;;7.88;2.78;;;;;;;17.51;89.81;96420.50;5034377;28;20205;-70
2023/05/05 07:16:11;;;;;;;6.43;3.58;;;;;;;17.81;90.00;96417.00;5035944;28;20220;-71
2023/05/05 07:18:38;;;;;;;4.70;2.72;;;;;;;18.13;88.92;96423.13;5034252;28;20213;-70
2023/05/05 07:21:05;;;;;;;6.13;2.78;;;;;;;18.34;85.50;96426.22;5034190;28;20201;-71
2023/05/05 07:23:31;;;;;;;6.47;3.08;;;;;;;18.34;83.67;96419.03;5035530;28;20213;-71
2023/05/05 07:25:58;;;;;;;6.25;3.47;;;;;;;18.44;82.33;96411.34;5035087;28;20221;-70
2023/05/05 07:28:26;;;;;;;8.65;4.00;;;;;;;18.55;83.69;96418.59;5034010;28;20216;-71
2023/05/05 07:30:53;;;;;;;5.78;3.53;;;;;;;18.44;85.07;96414.00;5035524;28;20201;-70
2023/05/05 07:33:20;;;;;;;4.13;2.70;;;;;;;18.57;84.65;96421.03;5035287;28;20211;-70
2023/05/05 07:35:46;;;;;;;5.25;3.10;;;;;;;18.66;82.61;96417.88;5034573;28;20225;-70
2023/05/05 07:38:13;;;;;;;5.20;2.78;;;;;;;18.69;81.98;96425.44;5034156;28;20202;-71
2023/05/05 07:40:39;;;;;;;5.13;2.70;;;;;;;18.86;80.75;96423.00;5034511;28;20216;-71
2023/05/05 07:43:06;;;;;;;7.78;3.60;;;;;;;18.96;80.93;96421.41;5034493;28;20585;-71
2023/05/05 07:45:33;;;;;;;4.07;3.17;;;;;;;19.05;79.91;96420.91;5035404;28;20225;-70
2023/05/05 07:48:00;;;;;;;7.10;3.65;;;;;;;18.99;79.71;96420.97;5038332;28;20198;-70
2023/05/05 07:50:27;;;;;;;5.97;3.20;;;;;;;18.94;81.14;96421.66;5038253;28;20229;-70
2023/05/05 07:52:53;;;;;;;5.32;2.80;;;;;;;19.01;79.22;96426.91;5038521;28;20205;-70
2023/05/05 07:55:20;;;;;;;7.78;3.67;;;;;;;18.94;79.88;96420.84;5038625;28;20235;-70
2023/05/05 07:57:47;;;;;;;5.95;3.45;;;;;;;19.23;79.91;96417.41;5037780;28;20216;-70
2023/05/05 08:00:14;;;;;;;4.72;2.70;;;;;;;19.17;80.75;96418.28;5037648;28;20201;-70
2023/05/05 08:02:42;;;;;;;9.25;3.35;;;;;;;19.32;80.04;96424.91;5037776;28;20214;-70
2023/05/05 08:05:09;;;;;;;4.82;3.13;;;;;;;19.37;81.45;96426.88;5038490;28;20312;-70
2023/05/05 08:07:39;;;;;;;5.43;3.03;;;;;;;19.35;81.51;96420.97;5037643;28;20213;-69
2023/05/05 08:10:07;;;;;;;4.22;2.67;;;;;;;19.48;81.02;96426.13;5037801;28;20225;-70
2023/05/05 08:12:34;;;;;;;6.38;3.33;;;;;;;19.51;77.22;96420.31;5038687;28;20205;-69
2023/05/05 08:15:00;;;;;;;8.02;3.88;;;;;;;19.56;77.59;96417.78;5037815;28;20197;-70
2023/05/05 08:17:27;;;;;;;7.72;3.70;;;;;;;19.71;76.14;96413.63;5037627;28;20216;-70
2023/05/05 08:19:54;;;;;;;7.35;3.67;;;;;;;19.63;77.63;96404.06;5038274;28;20197;-69
2023/05/05 08:22:21;;;;;;;4.20;2.70;;;;;;;19.63;78.35;96414.78;5037312;28;20197;-70
2023/05/05 08:24:48;;;;;;;6.90;3.33;;;;;;;19.67;77.94;96407.91;5037514;28;20571;-70
2023/05/05 08:27:14;;;;;;;8.68;3.65;;;;;;;19.83;77.89;96401.91;5038925;28;20225;-70
2023/05/05 08:29:41;;;;;;;6.93;3.35;;;;;;;20.03;76.82;96415.00;5037338;28;20221;-70
2023/05/05 08:32:07;;;;;;;3.15;2.30;;;;;;;20.27;76.78;96409.44;5037348;28;20209;-70
2023/05/05 08:34:34;;;;;;;4.82;2.60;;;;;;;20.37;77.09;96410.47;5037782;28;20201;-70
2023/05/05 08:37:02;;;;;;;4.28;2.28;;;;;;;20.47;73.30;96407.25;5037592;28;20246;-70
2023/05/05 08:39:28;;;;;;;7.45;2.72;;;;;;;20.49;73.81;96394.41;5036473;28;20209;-70
2023/05/05 08:41:55;;;;;;;4.35;2.40;;;;;;;20.58;74.28;96401.03;5038003;28;20204;-70
2023/05/05 08:44:21;;;;;;;4.78;2.70;;;;;;;20.59;74.10;96405.34;5036977;28;20701;-70
2023/05/05 08:46:49;;;;;;;5.03;2.92;;;;;;;20.83;73.37;96407.00;5037222;28;20220;-70
2023/05/05 08:49:18;;;;;;;3.45;2.40;;;;;;;20.87;74.28;96409.78;5036890;28;20276;-70
2023/05/05 08:51:46;;;;;;;4.80;2.30;;;;;;;20.99;74.51;96407.88;5036959;28;20745;-70
2023/05/05 08:54:19;;;;;;;4.50;2.00;;;;;;;21.00;72.36;96409.50;5037456;28;20921;-70
2023/05/05 08:56:50;;;;;;;5.60;2.65;;;;;;;20.98;72.66;96411.59;5035812;28;20225;-70
2023/05/05 08:59:17;;;;;;;9.57;2.80;;;;;;;20.74;71.33;96414.56;5035679;28;21038;-70
2023/05/05 09:01:44;;;;;;;3.75;2.13;;;;;;;20.70;72.90;96423.28;5036429;28;20467;-70
2023/05/05 09:04:11;;;;;;;4.72;2.58;;;;;;;20.86;71.63;96426.06;5035832;28;20296;-70
2023/05/05 09:06:37;;;;;;;2.65;1.58;;;;;;;20.75;71.79;96426.09;5035618;28;20568;-70
2023/05/05 09:09:04;;;;;;;4.65;1.90;;;;;;;20.82;70.89;96427.59;5035754;28;20236;-69
2023/05/05 09:11:34;;;;;;;3.08;1.73;;;;;;;21.07;70.14;96430.81;5035327;28;20197;-70
2023/05/05 09:14:01;;;;;;;4.70;1.77;;;;;;;21.00;69.74;96430.94;5034952;28;20205;-70
2023/05/05 09:16:28;;;;;;;3.90;2.22;;;;;;;20.93;68.90;96419.53;5035512;28;20225;-70
2023/05/05 09:19:01;;;;;;;5.18;2.35;;;;;;;21.04;70.30;96423.22;5035073;28;20198;-69
2023/05/05 09:21:28;;;;;;;3.08;1.80;;;;;;;21.43;68.21;96417.84;5035213;28;20201;-70
2023/05/05 09:24:05;;;;;;;3.88;1.83;;;;;;;21.81;67.30;96426.13;5035787;28;20233;-70
2023/05/05 09:26:34;;;;;;;3.17;2.28;;;;;;;22.02;64.17;96425.41;5034695;28;20229;-70
2023/05/05 09:29:02;;;;;;;3.35;1.83;;;;;;;22.30;65.39;96420.78;5035137;28;20198;-70
2023/05/05 09:31:30;;;;;;;4.43;2.30;;;;;;;22.35;65.08;96416.34;5035859;28;20259;-70
2023/05/05 09:33:59;;;;;;;4.38;1.67;;;;;;;22.29;66.10;96416.50;5035881;28;20201;-70
2023/05/05 09:36:41;;;;;;;4.07;2.20;;;;;;;22.32;64.11;96422.19;5035405;28;20716;-70
2023/05/05 09:39:08;;;;;;;3.20;1.90;;;;;;;21.74;66.38;96412.84;5036376;28;20259;-70
2023/05/05 09:41:40;;;;;;;2.83;1.70;;;;;;;21.62;69.44;96413.97;5035908;28;20216;-70
2023/05/05 09:44:06;;;;;;;4.53;2.38;;;;;;;21.42;67.71;96418.91;5035198;28;20204;-70
2023/05/05 09:46:33;;;;;;;5.53;2.17;;;;;;;21.56;69.56;96420.28;5035327;28;20784;-70
2023/05/05 09:49:15;;;;;;;2.58;1.75;;;;;;;21.72;67.68;96414.94;5034583;28;20973;-70
2023/05/05 09:51:41;;;;;;;3.20;1.80;;;;;;;21.89;66.29;96418.47;5035000;28;20205;-71
2023/05/05 09:54:08;;;;;;;3.90;1.83;;;;;;;21.83;66.97;96415.94;5034116;28;20661;-71
2023/05/05 09:56:40;;;;;;;3.53;1.90;;;;;;;22.02;63.05;96412.81;5034796;28;20225;-71
2023/05/05 09:59:10;;;;;;;2.88;1.70;;;;;;;22.05;64.85;96415.81;5034556;28;20263;-71
2023/05/05 10:01:38;;;;;;;3.90;1.50;;;;;;;22.41;63.36;96420.69;5034245;28;20670;-71
2023/05/05 10:04:05;;;;;;;5.18;1.88;;;;;;;22.27;62.36;96408.66;5035590;28;20463;-70
2023/05/05 10:06:42;;;;;;;3.15;1.58;;;;;;;22.76;60.68;96416.66;5034511;28;20604;-71
2023/05/05 10:09:09;;;;;;;3.20;2.00;;;;;;;22.71;62.37;96411.22;5033539;28;20211;-72
2023/05/05 10:11:36;;;;;;;4.93;1.90;;;;;;;22.53;62.21;96407.19;5034804;28;20204;-70
2023/05/05 10:14:06;;;;;;;4.40;1.80;;;;;;;22.63;62.99;96413.50;5034872;28;20201;-71
2023/05/05 10:16:33;;;;;;;1.35;1.08;;;;;;;22.35;62.21;96410.97;5034956;28;20244;-70
2023/05/05 10:19:02;;;;;;;1.77;1.27;;;;;;;22.31;62.40;96409.81;5034293;28;20666;-71
2023/05/05 10:21:33;;;;;;;6.63;1.40;;;;;;;22.97;62.82;96404.31;5034433;28;20197;-71
2023/05/05 10:24:06;;;;;;;1.83;1.25;;;;;;;23.01;62.58;96400.88;5035053;28;20201;-70
2023/05/05 10:26:38;;;;;;;1.63;1.10;;;;;;;23.12;63.81;96393.78;5033731;28;20225;-70
2023/05/05 10:29:12;;;;;;;1.80;1.05;;;;;;;23.42;59.86;96393.06;5034322;28;20220;-71
2023/05/05 10:31:45;;;;;;;1.25;1.13;;;;;;;23.42;57.79;96387.69;5034044;28;20201;-71
2023/05/05 10:34:20;;;;;;;1.17;0.80;;;;;;;23.59;56.75;96396.47;5034266;28;20762;-70
2023/05/05 10:36:48;;;;;;;2.45;0.80;;;;;;;23.23;57.28;96387.44;5035619;28;20225;-70
2023/05/05 10:39:18;;;;;;;1.10;0.68;;;;;;;23.59;55.33;96388.41;5034601;28;20213;-70
2023/05/05 10:41:46;;;;;;;0.73;0.60;;;;;;;23.66;57.58;96383.66;5035428;28;20229;-70
2023/05/05 10:44:15;;;;;;;1.00;0.60;;;;;;;23.90;53.01;96384.94;5035757;28;20201;-70
2023/05/05 10:46:42;;;;;;;1.10;0.70;;;;;;;23.83;52.54;96378.16;5035587;28;20253;-71
2023/05/05 10:49:20;;;;;;;3.05;0.70;;;;;;;23.42;53.97;96376.94;5034219;28;20205;-71
2023/05/05 10:51:55;;;;;;;3.20;1.20;;;;;;;23.11;55.47;96365.28;5034286;28;20747;-71
2023/05/05 10:54:30;;;;;;;1.05;0.88;;;;;;;23.25;55.34;96361.94;5036937;28;20204;-70
2023/05/05 10:56:57;;;;;;;1.00;0.70;;;;;;;23.82;55.61;96358.50;5034712;28;20220;-70
2023/05/05 10:59:42;;;;;;;1.33;0.90;;;;;;;24.32;57.83;96353.53;5034390;28;20197;-70
2023/05/05 11:02:23;;;;;;;1.05;0.75;;;;;;;24.61;56.26;96355.63;5034870;28;20849;-70
2023/05/05 11:05:11;;;;;;;0.90;0.75;;;;;;;24.59;56.00;96347.81;5035570;28;20219;-70
2023/05/05 11:07:38;;;;;;;2.83;1.13;;;;;;;24.83;50.78;96332.81;5034600;28;20209;-70
2023/05/05 11:10:05;;;;;;;1.20;1.02;;;;;;;24.22;49.88;96338.13;5035056;28;20319;-70
2023/05/05 11:12:33;;;;;;;1.92;1.10;;;;;;;24.35;51.19;96331.44;5035076;28;20212;-70
2023/05/05 11:15:37;;;;;;;2.97;1.05;;;;;;;24.68;54.04;96324.69;5035050;28;20205;-70
2023/05/05 11:18:05;;;;;;;1.20;0.90;;;;;;;24.75;53.90;96336.03;5034567;28;20204;-70
2023/05/05 11:21:17;;;;;;;1.02;0.70;;;;;;;24.35;51.33;96328.75;5035522;28;20236;-70
2023/05/05 11:23:48;;;;;;;1.30;0.90;;;;;;;23.78;54.05;96332.34;4958363;28;20284;-70
2023/05/05 11:26:16;;;;;;;0.80;0.80;;;;;;;23.48;58.17;96329.38;4958111;28;20239;-70
2023/05/05 11:28:56;;;;;;;1.23;0.80;;;;;;;23.20;55.71;96328.81;5002533;28;20209;-70
2023/05/05 11:31:24;;;;;;;1.42;0.60;;;;;;;23.17;55.02;96323.94;5037901;28;20724;-70
2023/05/05 11:33:50;;;;;;;1.13;0.90;;;;;;;23.23;53.62;96322.91;5038004;28;20205;-70
2023/05/05 11:36:19;;;;;;;1.88;0.82;;;;;;;23.66;55.36;96319.06;5037404;28;20257;-70
2023/05/05 11:39:07;;;;;;;1.10;0.88;;;;;;;24.33;53.86;96322.81;5035245;28;20208;-70